createdAt,value
2018-05-09T00:01:14.076Z,76.40
2018-05-09T00:03:41.694Z,76.40
2018-05-09T00:06:10.197Z,76.70
2018-05-09T00:08:37.788Z,76.70
2018-05-09T00:11:05.399Z,76.60
2018-05-09T00:13:33.039Z,76.70
2018-05-09T00:16:01.407Z,76.70
2018-05-09T00:18:29.050Z,77.40
2018-05-09T00:20:56.648Z,76.70
2018-05-09T00:23:24.287Z,77.10
2018-05-09T00:25:51.943Z,76.80
2018-05-09T00:28:19.545Z,76.80
2018-05-09T00:30:47.197Z,77.10
2018-05-09T00:33:14.876Z,76.90
2018-05-09T00:35:43.271Z,77.00
2018-05-09T00:38:10.931Z,77.00
2018-05-09T00:40:38.577Z,77.40
2018-05-09T00:43:07.004Z,77.20
2018-05-09T00:45:34.625Z,77.20
2018-05-09T00:48:03.044Z,77.10
2018-05-09T00:50:30.688Z,77.10
2018-05-09T00:52:58.303Z,77.20
2018-05-09T00:55:25.951Z,77.10
2018-05-09T00:57:53.566Z,77.00
2018-05-09T01:00:21.214Z,76.90
2018-05-09T01:02:48.827Z,77.20
2018-05-09T01:05:16.482Z,77.10
2018-05-09T01:07:44.137Z,77.30
2018-05-09T01:10:11.740Z,77.10
2018-05-09T01:12:39.378Z,76.90
2018-05-09T01:15:07.033Z,77.10
2018-05-09T01:17:35.410Z,77.30
2018-05-09T01:20:03.066Z,77.30
2018-05-09T01:22:30.734Z,77.20
2018-05-09T01:24:58.380Z,77.30
2018-05-09T01:27:26.054Z,77.20
2018-05-09T01:29:53.685Z,76.90
2018-05-09T01:32:21.282Z,77.00
2018-05-09T01:34:48.928Z,77.00
2018-05-09T01:37:16.568Z,76.90
2018-05-09T01:39:44.196Z,77.30
2018-05-09T01:42:12.562Z,77.30
2018-05-09T01:44:40.212Z,77.20
2018-05-09T01:47:07.804Z,77.20
2018-05-09T01:49:36.175Z,77.50
2018-05-09T01:52:04.569Z,77.30
2018-05-09T01:54:33.013Z,77.60
2018-05-09T01:57:00.673Z,77.50
2018-05-09T01:59:28.283Z,77.50
2018-05-09T02:01:55.938Z,77.40
2018-05-09T02:04:23.701Z,77.30
2018-05-09T02:06:51.360Z,77.60
2018-05-09T02:09:18.978Z,77.60
2018-05-09T02:11:46.634Z,77.80
2018-05-09T02:14:14.427Z,77.70
2018-05-09T02:16:50.958Z,77.80
2018-05-09T02:19:18.605Z,77.80
2018-05-09T02:21:46.205Z,78.00
2018-05-09T02:24:13.859Z,77.90
2018-05-09T02:26:41.572Z,78.10
2018-05-09T02:29:09.177Z,78.30
2018-05-09T02:31:36.825Z,78.60
2018-05-09T02:34:04.438Z,78.40
2018-05-09T02:36:32.900Z,78.40
2018-05-09T02:39:00.522Z,78.40
2018-05-09T02:41:28.127Z,78.30
2018-05-09T02:43:55.768Z,78.20
2018-05-09T02:46:23.556Z,78.20
2018-05-09T02:48:53.068Z,78.30
2018-05-09T02:51:21.663Z,78.30
2018-05-09T02:53:49.455Z,78.30
2018-05-09T02:56:17.252Z,78.40
2018-05-09T02:58:44.874Z,78.40
2018-05-09T03:01:12.497Z,78.30
2018-05-09T03:03:40.928Z,78.70
2018-05-09T03:06:08.647Z,78.70
2018-05-09T03:08:37.031Z,78.70
2018-05-09T03:11:04.690Z,78.50
2018-05-09T03:13:32.396Z,78.30
2018-05-09T03:16:00.040Z,78.50
2018-05-09T03:18:27.678Z,78.50
2018-05-09T03:20:56.095Z,78.70
2018-05-09T03:23:23.797Z,78.60
2018-05-09T03:25:51.461Z,78.50
2018-05-09T03:28:19.083Z,78.30
2018-05-09T03:30:46.737Z,78.30
2018-05-09T03:33:14.388Z,78.30
2018-05-09T03:35:42.041Z,78.60
2018-05-09T03:38:09.649Z,78.50
2018-05-09T03:40:37.302Z,78.80
2018-05-09T03:43:04.989Z,78.90
2018-05-09T03:45:32.648Z,78.80
2018-05-09T03:48:00.261Z,78.70
2018-05-09T03:50:27.912Z,78.80
2018-05-09T03:52:55.522Z,78.70
2018-05-09T03:55:23.170Z,78.40
2018-05-09T03:57:50.839Z,78.60
2018-05-09T04:00:18.456Z,78.60
2018-05-09T04:02:57.955Z,78.40
2018-05-09T04:05:37.351Z,78.40
2018-05-09T04:08:16.791Z,78.50
2018-05-09T04:10:44.386Z,78.80
2018-05-09T04:13:12.060Z,78.80
2018-05-09T04:15:40.518Z,78.50
2018-05-09T04:18:08.157Z,78.50
2018-05-09T04:20:35.837Z,78.70
2018-05-09T04:23:03.539Z,78.30
2018-05-09T04:25:31.953Z,78.30
2018-05-09T04:27:59.596Z,78.30
2018-05-09T04:30:27.275Z,78.20
2018-05-09T04:32:54.955Z,78.30
2018-05-09T04:35:22.676Z,78.10
2018-05-09T04:37:50.338Z,78.30
2018-05-09T04:40:17.999Z,78.20
2018-05-09T04:42:46.649Z,78.20
2018-05-09T04:45:14.320Z,77.90
2018-05-09T04:47:41.927Z,77.70
2018-05-09T04:50:09.554Z,78.50
2018-05-09T04:52:38.316Z,78.30
2018-05-09T04:55:06.854Z,78.30
2018-05-09T04:57:34.801Z,77.90
2018-05-09T05:00:02.933Z,77.80
2018-05-09T05:02:31.748Z,77.10
2018-05-09T05:04:59.664Z,77.00
2018-05-09T05:07:27.741Z,76.70
2018-05-09T05:09:55.727Z,76.60
2018-05-09T05:12:23.635Z,76.80
2018-05-09T05:14:51.614Z,76.70
2018-05-09T05:17:19.464Z,76.00
2018-05-09T05:19:48.478Z,75.90
2018-05-09T05:22:16.356Z,76.40
2018-05-09T05:24:44.338Z,75.90
2018-05-09T05:27:12.686Z,75.50
2018-05-09T05:29:40.754Z,75.30
2018-05-09T05:32:08.615Z,75.30
2018-05-09T05:34:37.274Z,74.70
2018-05-09T05:37:05.244Z,74.10
2018-05-09T05:39:33.416Z,73.80
2018-05-09T05:42:01.665Z,73.80
2018-05-09T05:44:29.639Z,73.50
2018-05-09T05:46:57.553Z,73.40
2018-05-09T05:49:26.666Z,74.00
2018-05-09T05:51:54.583Z,73.40
2018-05-09T05:54:22.488Z,72.60
2018-05-09T05:56:50.477Z,72.70
2018-05-09T05:59:18.380Z,72.70
2018-05-09T06:01:46.360Z,73.00
2018-05-09T06:04:15.028Z,73.00
2018-05-09T06:06:44.945Z,72.90
2018-05-09T06:09:12.862Z,73.30
2018-05-09T06:11:40.956Z,71.20
2018-05-09T06:14:08.945Z,70.80
2018-05-09T06:16:36.842Z,70.60
2018-05-09T06:19:04.680Z,69.60
2018-05-09T06:21:32.526Z,69.80
2018-05-09T06:24:00.481Z,70.00
2018-05-09T06:26:28.855Z,70.00
2018-05-09T06:28:56.802Z,71.00
2018-05-09T06:31:24.751Z,70.70
2018-05-09T06:33:52.717Z,69.80
2018-05-09T06:36:21.407Z,68.20
2018-05-09T06:38:50.155Z,66.60
2018-05-09T06:41:18.099Z,66.60
2018-05-09T06:43:46.063Z,65.30
2018-05-09T06:46:13.990Z,65.30
2018-05-09T06:48:42.642Z,66.10
2018-05-09T06:51:10.584Z,66.00
2018-05-09T06:53:38.505Z,65.80
2018-05-09T06:56:07.212Z,66.80
2018-05-09T06:58:35.891Z,65.70
2018-05-09T07:01:04.597Z,65.60
2018-05-09T07:03:32.548Z,65.50
2018-05-09T07:06:00.505Z,64.40
2018-05-09T07:08:29.243Z,64.00
2018-05-09T07:10:57.225Z,63.90
2018-05-09T07:13:25.104Z,62.10
2018-05-09T07:15:52.996Z,60.10
2018-05-09T07:18:20.986Z,57.80
2018-05-09T07:20:48.897Z,57.70
2018-05-09T07:23:17.200Z,57.40
2018-05-09T07:25:45.121Z,58.00
2018-05-09T07:28:13.072Z,57.60
2018-05-09T07:30:41.031Z,57.60
2018-05-09T07:33:12.379Z,57.70
2018-05-09T07:35:40.306Z,58.00
2018-05-09T07:38:08.209Z,57.00
2018-05-09T07:40:36.853Z,56.50
2018-05-09T07:43:04.754Z,56.50
2018-05-09T07:45:32.730Z,56.40
2018-05-09T07:48:00.679Z,56.60
2018-05-09T07:50:29.119Z,55.70
2018-05-09T07:52:57.027Z,56.00
2018-05-09T07:55:24.955Z,55.00
2018-05-09T07:57:52.806Z,54.30
2018-05-09T08:00:20.711Z,54.30
2018-05-09T08:02:48.575Z,51.70
2018-05-09T08:05:16.422Z,51.50
2018-05-09T08:07:44.229Z,48.90
2018-05-09T08:10:12.071Z,46.80
2018-05-09T08:12:39.930Z,48.80
2018-05-09T08:15:07.725Z,48.50
2018-05-09T08:17:35.586Z,49.90
2018-05-09T08:20:03.419Z,48.50
2018-05-09T08:22:31.302Z,47.60
2018-05-09T08:24:59.136Z,48.30
2018-05-09T08:27:27.199Z,48.80
2018-05-09T08:29:55.221Z,49.20
2018-05-09T08:32:23.083Z,51.40
2018-05-09T08:34:51.107Z,48.90
2018-05-09T08:37:18.957Z,48.30
2018-05-09T08:39:47.593Z,47.00
2018-05-09T08:42:15.435Z,47.00
2018-05-09T08:44:43.338Z,46.40
2018-05-09T08:47:11.240Z,46.20
2018-05-09T08:49:39.879Z,46.30
2018-05-09T08:52:07.741Z,46.20
2018-05-09T08:54:35.573Z,46.20
2018-05-09T08:57:03.484Z,45.10
2018-05-09T08:59:31.443Z,44.50
2018-05-09T09:01:59.530Z,45.00
2018-05-09T09:04:27.508Z,45.80
2018-05-09T09:06:55.377Z,43.50
2018-05-09T09:09:23.225Z,45.00
2018-05-09T09:11:51.083Z,43.80
2018-05-09T09:14:18.968Z,42.50
2018-05-09T09:16:46.791Z,42.90
2018-05-09T09:19:14.691Z,42.60
2018-05-09T09:21:42.533Z,40.50
2018-05-09T09:24:10.405Z,41.10
2018-05-09T09:26:38.303Z,41.10
2018-05-09T09:29:06.433Z,41.30
2018-05-09T09:31:34.253Z,41.60
2018-05-09T09:34:02.135Z,39.50
2018-05-09T09:36:29.988Z,39.00
2018-05-09T09:38:57.896Z,41.20
2018-05-09T09:41:25.847Z,39.60
2018-05-09T09:43:53.766Z,38.30
2018-05-09T09:46:21.633Z,37.90
2018-05-09T09:48:49.649Z,39.00
2018-05-09T09:51:18.278Z,40.10
2018-05-09T09:53:48.298Z,40.20
2018-05-09T09:56:16.410Z,38.00
2018-05-09T09:58:44.293Z,37.90
2018-05-09T10:01:12.239Z,36.40
2018-05-09T10:03:40.937Z,37.40
2018-05-09T10:06:09.583Z,35.90
2018-05-09T10:08:37.525Z,35.90
2018-05-09T10:11:05.535Z,36.00
2018-05-09T10:13:33.452Z,36.60
2018-05-09T10:16:01.484Z,35.90
2018-05-09T10:18:30.193Z,35.90
2018-05-09T10:20:58.208Z,35.90
2018-05-09T10:23:32.536Z,35.00
2018-05-09T10:26:00.508Z,35.50
2018-05-09T10:28:28.370Z,34.10
2018-05-09T10:30:56.320Z,34.60
2018-05-09T10:33:26.286Z,34.40
2018-05-09T10:35:55.038Z,35.70
2018-05-09T10:38:23.004Z,35.70
2018-05-09T10:40:50.996Z,34.30
2018-05-09T10:43:19.274Z,33.90
2018-05-09T10:45:47.291Z,34.00
2018-05-09T10:48:16.107Z,34.90
2018-05-09T10:50:44.001Z,34.80
2018-05-09T10:53:12.752Z,34.30
2018-05-09T10:55:40.667Z,34.30
2018-05-09T10:58:08.638Z,33.40
2018-05-09T11:00:36.408Z,33.20
2018-05-09T11:03:05.210Z,33.90
2018-05-09T11:05:33.143Z,33.90
2018-05-09T11:08:01.184Z,33.90
2018-05-09T11:10:29.332Z,30.80
2018-05-09T11:12:57.341Z,31.60
2018-05-09T11:15:25.342Z,32.40
2018-05-09T11:17:53.422Z,33.20
2018-05-09T11:20:21.862Z,32.70
2018-05-09T11:22:50.279Z,33.20
2018-05-09T11:25:19.230Z,34.20
2018-05-09T11:27:47.361Z,34.10
2018-05-09T11:30:16.137Z,33.30
2018-05-09T11:32:44.188Z,33.30
2018-05-09T11:35:12.223Z,34.60
2018-05-09T11:37:40.333Z,34.20
2018-05-09T11:40:09.068Z,34.20
2018-05-09T11:42:37.390Z,34.20
2018-05-09T11:45:06.132Z,35.90
2018-05-09T11:47:34.253Z,35.90
2018-05-09T11:50:02.285Z,34.80
2018-05-09T11:52:30.206Z,35.40
2018-05-09T11:54:58.982Z,34.00
2018-05-09T11:57:28.863Z,35.20
2018-05-09T11:59:56.875Z,35.20
2018-05-09T12:02:25.632Z,35.00
2018-05-09T12:04:53.650Z,35.00
2018-05-09T12:07:26.034Z,35.10
2018-05-09T12:09:53.995Z,33.50
2018-05-09T12:12:22.047Z,34.50
2018-05-09T12:14:49.984Z,36.90
2018-05-09T12:17:17.880Z,35.90
2018-05-09T12:19:47.808Z,34.90
2018-05-09T12:22:15.925Z,34.90
2018-05-09T12:24:43.979Z,34.40
2018-05-09T12:27:12.020Z,34.20
2018-05-09T12:29:40.034Z,33.40
2018-05-09T12:32:08.191Z,33.50
2018-05-09T12:34:36.282Z,32.10
2018-05-09T12:37:04.178Z,31.50
2018-05-09T12:39:32.173Z,30.10
2018-05-09T12:42:00.104Z,31.50
2018-05-09T12:44:28.128Z,31.00
2018-05-09T12:46:56.105Z,32.30
2018-05-09T12:49:24.198Z,32.70
2018-05-09T12:51:52.588Z,31.80
2018-05-09T12:54:20.564Z,32.60
2018-05-09T12:56:48.450Z,32.60
2018-05-09T12:59:17.186Z,33.00
2018-05-09T13:01:45.190Z,33.00
2018-05-09T13:04:13.116Z,32.80
2018-05-09T13:06:40.990Z,33.10
2018-05-09T13:09:09.298Z,32.00
2018-05-09T13:11:37.334Z,32.50
2018-05-09T13:14:05.336Z,33.40
2018-05-09T13:16:33.267Z,34.00
2018-05-09T13:19:01.274Z,34.10
2018-05-09T13:21:29.149Z,34.70
2018-05-09T13:23:57.208Z,33.50
2018-05-09T13:26:25.512Z,33.70
2018-05-09T13:28:57.976Z,34.40
2018-05-09T13:31:25.913Z,34.40
2018-05-09T13:33:53.850Z,34.60
2018-05-09T13:36:21.802Z,34.60
2018-05-09T13:38:49.735Z,34.60
2018-05-09T13:41:17.902Z,34.80
2018-05-09T13:43:46.382Z,35.50
2018-05-09T13:46:14.470Z,35.90
2018-05-09T13:48:42.574Z,40.80
2018-05-09T13:51:19.254Z,42.80
2018-05-09T13:53:47.272Z,43.10
2018-05-09T13:56:15.207Z,43.70
2018-05-09T13:58:43.195Z,43.10
2018-05-09T14:01:11.200Z,42.70
2018-05-09T14:03:39.198Z,42.40
2018-05-09T14:06:07.106Z,42.80
2018-05-09T14:08:37.093Z,44.50
2018-05-09T14:11:05.039Z,43.20
2018-05-09T14:13:33.880Z,44.80
2018-05-09T14:16:01.797Z,44.80
2018-05-09T14:18:29.895Z,45.20
2018-05-09T14:20:57.784Z,45.60
2018-05-09T14:23:25.713Z,45.60
2018-05-09T14:25:53.628Z,46.30
2018-05-09T14:28:21.587Z,47.00
2018-05-09T14:30:49.485Z,46.30
2018-05-09T14:33:17.820Z,45.50
2018-05-09T14:35:45.735Z,44.90
2018-05-09T14:38:13.692Z,45.60
2018-05-09T14:40:41.881Z,44.40
2018-05-09T14:43:09.803Z,43.70
2018-05-09T14:45:38.534Z,43.30
2018-05-09T14:48:08.104Z,42.50
2018-05-09T14:50:36.247Z,42.50
2018-05-09T14:53:04.222Z,41.70
2018-05-09T14:55:32.220Z,41.70
2018-05-09T14:58:00.472Z,42.00
2018-05-09T15:00:28.724Z,41.00
2018-05-09T15:03:03.254Z,40.60
2018-05-09T15:05:31.328Z,40.60
2018-05-09T15:07:59.740Z,40.20
2018-05-09T15:10:28.625Z,41.20
2018-05-09T15:15:36.022Z,40.60
2018-05-09T15:20:41.519Z,40.90
2018-05-09T15:23:11.556Z,41.60
2018-05-09T15:25:41.051Z,41.60
2018-05-09T15:28:14.494Z,39.30
2018-05-09T15:30:43.789Z,38.50
2018-05-09T15:33:12.487Z,38.70
2018-05-09T15:35:41.157Z,38.10
2018-05-09T15:38:09.559Z,37.40
2018-05-09T15:40:37.820Z,35.50
2018-05-09T15:43:10.195Z,36.10
2018-05-09T15:45:38.527Z,37.00
2018-05-09T15:48:07.449Z,34.70
2018-05-09T15:50:35.837Z,33.30
2018-05-09T15:53:03.986Z,34.40
2018-05-09T15:55:33.079Z,34.80
2018-05-09T15:58:01.880Z,34.80
2018-05-09T16:00:31.763Z,33.80
2018-05-09T16:03:00.741Z,34.90
2018-05-09T16:05:28.909Z,34.90
2018-05-09T16:07:57.213Z,33.90
2018-05-09T16:10:26.877Z,34.70
2018-05-09T16:12:55.875Z,34.70
2018-05-09T16:15:23.694Z,34.70
2018-05-09T16:17:52.052Z,34.60
2018-05-09T16:20:20.415Z,35.40
2018-05-09T16:22:48.457Z,35.40
2018-05-09T16:25:16.860Z,35.40
2018-05-09T16:27:44.581Z,35.40
2018-05-09T16:30:13.354Z,36.40
2018-05-09T16:32:41.013Z,36.50
2018-05-09T16:35:08.729Z,37.40
2018-05-09T16:37:36.873Z,37.70
2018-05-09T16:40:04.571Z,38.50
2018-05-09T16:42:32.176Z,36.60
2018-05-09T16:44:59.805Z,38.40
2018-05-09T16:47:27.480Z,36.70
2018-05-09T16:49:55.091Z,38.50
2018-05-09T16:52:23.508Z,39.10
2018-05-09T16:54:51.121Z,39.10
2018-05-09T16:57:18.769Z,38.70
2018-05-09T16:59:46.422Z,36.30
2018-05-09T17:02:14.570Z,34.20
2018-05-09T17:04:42.182Z,32.80
2018-05-09T17:07:10.591Z,32.00
2018-05-09T17:09:38.261Z,30.40
2018-05-09T17:12:05.862Z,31.00
2018-05-09T17:14:34.149Z,30.00
2018-05-09T17:17:03.125Z,29.20
2018-05-09T17:19:31.112Z,29.20
2018-05-09T17:22:16.303Z,29.90
2018-05-09T17:24:44.767Z,31.20
2018-05-09T17:27:12.402Z,31.20
2018-05-09T17:29:40.057Z,31.40
2018-05-09T17:32:07.698Z,33.70
2018-05-09T17:34:35.293Z,34.90
2018-05-09T17:37:03.687Z,35.20
2018-05-09T17:39:32.394Z,35.30
2018-05-09T17:42:01.285Z,39.00
2018-05-09T17:44:29.848Z,40.00
2018-05-09T17:46:57.715Z,40.00
2018-05-09T17:49:25.516Z,41.10
2018-05-09T17:51:54.774Z,42.30
2018-05-09T17:54:22.430Z,43.10
2018-05-09T17:56:50.386Z,43.30
2018-05-09T17:59:19.664Z,43.60
2018-05-09T18:01:47.814Z,44.70
2018-05-09T18:04:16.362Z,45.30
2018-05-09T18:06:44.265Z,45.30
2018-05-09T18:09:27.996Z,47.40
2018-05-09T18:12:29.069Z,47.00
2018-05-09T18:14:59.316Z,46.90
2018-05-09T18:17:26.950Z,48.20
2018-05-09T18:19:54.585Z,48.80
2018-05-09T18:22:28.721Z,48.90
2018-05-09T18:24:57.617Z,48.90
2018-05-09T18:27:25.373Z,49.00
2018-05-09T18:29:53.412Z,49.10
2018-05-09T18:32:21.894Z,49.80
2018-05-09T18:34:50.449Z,51.60
2018-05-09T18:37:18.694Z,51.60
2018-05-09T18:39:46.502Z,53.10
2018-05-09T18:42:18.226Z,54.00
2018-05-09T18:44:46.138Z,54.40
2018-05-09T18:47:13.930Z,55.00
2018-05-09T18:49:41.774Z,54.80
2018-05-09T18:52:10.335Z,54.20
2018-05-09T18:54:38.210Z,54.20
2018-05-09T18:57:06.402Z,53.70
2018-05-09T18:59:34.114Z,54.70
2018-05-09T19:02:01.806Z,55.00
2018-05-09T19:04:29.522Z,55.50
2018-05-09T19:06:57.113Z,56.50
2018-05-09T19:09:24.758Z,57.10
2018-05-09T19:11:52.421Z,58.00
2018-05-09T19:14:20.078Z,58.70
2018-05-09T19:16:47.682Z,58.30
2018-05-09T19:19:15.295Z,57.00
2018-05-09T19:21:42.937Z,57.30
2018-05-09T19:24:11.047Z,57.70
2018-05-09T19:26:39.448Z,57.80
2018-05-09T19:29:08.261Z,57.60
2018-05-09T19:31:36.716Z,58.90
2018-05-09T19:34:05.995Z,58.80
2018-05-09T19:36:33.682Z,58.80
2018-05-09T19:39:01.347Z,59.10
2018-05-09T19:41:29.104Z,59.40
2018-05-09T19:43:56.724Z,58.90
2018-05-09T19:46:24.383Z,59.10
2018-05-09T19:48:52.180Z,59.30
2018-05-09T19:51:19.835Z,59.30
2018-05-09T19:53:48.094Z,59.70
2018-05-09T19:56:15.788Z,60.50
2018-05-09T19:58:43.454Z,60.60
2018-05-09T20:01:11.183Z,61.00
2018-05-09T20:03:38.798Z,60.70
2018-05-09T20:06:07.251Z,60.70
2018-05-09T20:08:35.011Z,60.60
2018-05-09T20:11:02.689Z,60.70
2018-05-09T20:13:30.367Z,60.60
2018-05-09T20:15:58.793Z,60.80
2018-05-09T20:18:27.235Z,60.70
2018-05-09T20:20:55.145Z,60.70
2018-05-09T20:23:22.859Z,60.90
2018-05-09T20:25:50.547Z,61.10
2018-05-09T20:28:18.342Z,61.60
2018-05-09T20:30:51.629Z,61.80
2018-05-09T20:33:19.272Z,61.70
2018-05-09T20:35:46.971Z,61.90
2018-05-09T20:38:14.829Z,62.50
2018-05-09T20:40:42.877Z,62.70
2018-05-09T20:43:10.524Z,62.40
2018-05-09T20:45:38.170Z,61.10
2018-05-09T20:48:06.544Z,62.60
2018-05-09T20:50:34.209Z,62.50
2018-05-09T20:53:02.611Z,63.00
2018-05-09T20:55:30.857Z,62.90
2018-05-09T20:57:58.528Z,63.00
2018-05-09T21:00:27.391Z,62.60
2018-05-09T21:02:55.165Z,62.60
2018-05-09T21:05:22.769Z,63.30
2018-05-09T21:07:57.506Z,63.80
2018-05-09T21:10:25.526Z,63.90
2018-05-09T21:12:53.337Z,63.90
2018-05-09T21:15:20.976Z,64.30
2018-05-09T21:17:49.404Z,64.80
2018-05-09T21:20:17.236Z,64.70
2018-05-09T21:22:44.840Z,64.90
2018-05-09T21:25:12.653Z,64.80
2018-05-09T21:27:40.304Z,64.40
2018-05-09T21:30:07.897Z,64.50
2018-05-09T21:32:36.281Z,63.90
2018-05-09T21:35:03.969Z,64.30
2018-05-09T21:37:31.610Z,64.60
2018-05-09T21:39:59.202Z,65.00
2018-05-09T21:42:26.837Z,65.40
2018-05-09T21:44:54.481Z,65.60
2018-05-09T21:47:22.086Z,65.80
2018-05-09T21:49:50.541Z,66.00
2018-05-09T21:52:18.142Z,66.00
2018-05-09T21:54:46.567Z,66.80
2018-05-09T21:57:14.235Z,66.80
2018-05-09T21:59:41.872Z,66.80
2018-05-09T22:02:09.470Z,66.90
2018-05-09T22:04:37.117Z,67.20
2018-05-09T22:07:04.770Z,67.30
2018-05-09T22:09:32.409Z,67.70
2018-05-09T22:12:00.063Z,67.80
2018-05-09T22:14:27.658Z,67.80
2018-05-09T22:16:55.305Z,67.60
2018-05-09T22:19:22.925Z,67.70
2018-05-09T22:21:51.488Z,68.60
2018-05-09T22:24:23.246Z,68.40
2018-05-09T22:26:51.706Z,68.60
2018-05-09T22:29:19.343Z,68.60
2018-05-09T22:31:47.018Z,69.10
2018-05-09T22:34:14.644Z,69.00
2018-05-09T22:36:43.071Z,69.20
2018-05-09T22:39:10.776Z,69.20
2018-05-09T22:41:38.460Z,69.20
2018-05-09T22:44:06.067Z,69.40
2018-05-09T22:46:33.727Z,69.80
2018-05-09T22:49:01.333Z,70.10
2018-05-09T22:51:29.746Z,70.10
2018-05-09T22:53:57.346Z,70.10
2018-05-09T22:56:25.015Z,70.10
2018-05-09T22:58:52.849Z,70.00
2018-05-09T23:01:20.473Z,70.30
2018-05-09T23:03:48.119Z,70.30
2018-05-09T23:06:16.493Z,70.40
2018-05-09T23:08:44.872Z,70.50
2018-05-09T23:11:13.301Z,71.50
2018-05-09T23:13:40.919Z,70.60
2018-05-09T23:16:09.332Z,70.70
2018-05-09T23:18:36.930Z,70.70
2018-05-09T23:21:04.570Z,71.00
2018-05-09T23:23:32.166Z,71.10
2018-05-09T23:26:00.538Z,71.20
2018-05-09T23:28:28.189Z,71.20
2018-05-09T23:30:55.831Z,70.80
2018-05-09T23:33:23.429Z,70.70
2018-05-09T23:35:51.842Z,70.70
2018-05-09T23:38:19.487Z,70.70
2018-05-09T23:40:47.863Z,71.00
2018-05-09T23:43:16.265Z,71.30
2018-05-09T23:45:43.882Z,71.30
2018-05-09T23:48:11.554Z,71.20
2018-05-09T23:50:40.028Z,71.10
2018-05-09T23:53:08.442Z,71.40
2018-05-09T23:55:36.092Z,71.40
2018-05-09T23:58:03.726Z,71.70
